createdAt,value
2017-11-01T00:02:03.848Z,61.4
2017-11-01T00:07:03.170Z,61.4
2017-11-01T00:12:03.445Z,61.5
2017-11-01T00:17:03.722Z,61.5
2017-11-01T00:22:03.612Z,61.4
2017-11-01T00:27:03.823Z,61.5
2017-11-01T00:32:03.203Z,61.4
2017-11-01T00:37:03.328Z,61.7
2017-11-01T00:42:03.385Z,61.5
2017-11-01T00:47:03.708Z,61.2
2017-11-01T00:52:03.427Z,61.2
2017-11-01T00:57:03.601Z,61.1
2017-11-01T01:02:03.939Z,60.8
2017-11-01T01:07:03.491Z,60.8
2017-11-01T01:12:03.888Z,60.7
2017-11-01T01:17:03.207Z,60.8
2017-11-01T01:22:03.801Z,60.1
2017-11-01T01:27:03.021Z,60.1
2017-11-01T01:32:03.338Z,60.4
2017-11-01T01:37:03.818Z,60.6
2017-11-01T01:42:03.102Z,60.6
2017-11-01T01:47:03.451Z,60.5
2017-11-01T01:52:03.492Z,60.6
2017-11-01T01:57:03.585Z,60.7
2017-11-01T02:02:03.895Z,60.8
2017-11-01T02:07:03.404Z,61.2
2017-11-01T02:12:03.884Z,60.7
2017-11-01T02:17:03.347Z,60.7
2017-11-01T02:22:03.447Z,60.6
2017-11-01T02:27:03.677Z,61.1
2017-11-01T02:32:03.895Z,60.9
2017-11-01T02:37:03.237Z,60.9
2017-11-01T02:42:03.215Z,61.0
2017-11-01T02:47:03.525Z,60.9
2017-11-01T02:52:03.162Z,60.8
2017-11-01T02:57:03.493Z,60.8
2017-11-01T03:02:03.527Z,60.8
2017-11-01T03:07:03.429Z,61.0
2017-11-01T03:12:03.602Z,61.6
2017-11-01T03:17:03.847Z,61.6
2017-11-01T03:22:03.581Z,61.6
2017-11-01T03:27:03.716Z,61.0
2017-11-01T03:32:03.054Z,61.0
2017-11-01T03:37:03.394Z,61.0
2017-11-01T03:42:03.605Z,61.4
2017-11-01T03:47:03.880Z,61.1
2017-11-01T03:52:03.330Z,61.1
2017-11-01T03:57:03.572Z,61.0
2017-11-01T04:02:03.948Z,60.9
2017-11-01T04:07:03.265Z,61.6
2017-11-01T04:12:03.674Z,61.5
2017-11-01T04:17:04.059Z,61.4
2017-11-01T04:22:03.412Z,61.4
2017-11-01T04:27:03.666Z,61.1
2017-11-01T04:32:04.030Z,61.3
2017-11-01T04:37:03.417Z,61.3
2017-11-01T04:42:03.631Z,61.4
2017-11-01T04:47:03.996Z,61.0
2017-11-01T04:52:03.405Z,61.4
2017-11-01T04:57:03.624Z,61.8
2017-11-01T05:02:03.999Z,62.0
2017-11-01T05:07:03.334Z,61.9
2017-11-01T05:12:03.749Z,61.7
2017-11-01T05:17:04.091Z,61.6
2017-11-01T05:22:03.415Z,61.6
2017-11-01T05:27:03.705Z,61.9
2017-11-01T05:32:03.978Z,61.9
2017-11-01T05:37:03.326Z,61.8
2017-11-01T05:42:03.513Z,61.8
2017-11-01T05:47:15.385Z,61.8
2017-11-01T05:52:03.302Z,61.8
2017-11-01T05:57:03.789Z,62.2
2017-11-01T06:02:27.743Z,62.2
2017-11-01T06:07:03.176Z,62.1
2017-11-01T06:12:03.743Z,62.4
2017-11-01T06:17:24.822Z,62.4
2017-11-01T06:22:03.050Z,62.3
2017-11-01T06:27:03.149Z,62.3
2017-11-01T06:32:27.494Z,62.3
2017-11-01T06:37:03.688Z,62.3
2017-11-01T06:42:03.187Z,62.4
2017-11-01T06:47:30.926Z,62.5
2017-11-01T06:52:03.175Z,62.4
2017-11-01T06:57:03.605Z,62.3
2017-11-01T07:02:22.008Z,62.4
2017-11-01T07:07:03.177Z,62.2
2017-11-01T07:12:03.274Z,62.3
2017-11-01T07:17:22.461Z,62.1
2017-11-01T07:22:03.202Z,62.3
2017-11-01T07:27:03.753Z,62.4
2017-11-01T07:32:23.413Z,62.3
2017-11-01T07:37:03.254Z,62.3
2017-11-01T07:42:03.722Z,62.3
2017-11-01T07:47:22.903Z,62.2
2017-11-01T07:52:03.559Z,62.2
2017-11-01T07:57:03.139Z,62.2
2017-11-01T08:02:27.838Z,62.4
2017-11-01T08:07:03.078Z,62.0
2017-11-01T08:12:03.706Z,62.0
2017-11-01T08:17:23.463Z,61.9
2017-11-01T08:22:03.675Z,62.2
2017-11-01T08:27:03.168Z,62.2
2017-11-01T08:32:21.828Z,62.2
2017-11-01T08:37:03.658Z,62.2
2017-11-01T08:42:03.070Z,62.2
2017-11-01T08:47:23.339Z,62.0
2017-11-01T08:52:03.489Z,62.0
2017-11-01T08:57:03.896Z,61.7
2017-11-01T09:02:28.076Z,61.9
2017-11-01T09:07:03.826Z,62.0
2017-11-01T09:12:03.548Z,62.0
2017-11-01T09:17:28.594Z,62.0
2017-11-01T09:22:03.902Z,62.1
2017-11-01T09:27:03.398Z,62.0
2017-11-01T09:32:22.971Z,62.5
2017-11-01T09:37:03.427Z,62.4
2017-11-01T09:42:03.819Z,62.4
2017-11-01T09:47:24.867Z,62.7
2017-11-01T09:52:03.221Z,62.8
2017-11-01T09:57:03.447Z,62.8
2017-11-01T10:02:21.846Z,63.0
2017-11-01T10:07:03.582Z,63.0
2017-11-01T10:12:03.811Z,63.2
2017-11-01T10:17:21.658Z,63.4
2017-11-01T10:22:04.116Z,63.4
2017-11-01T10:27:03.441Z,63.3
2017-11-01T10:32:20.296Z,63.2
2017-11-01T10:37:03.690Z,63.2
2017-11-01T10:42:03.228Z,63.3
2017-11-01T10:47:28.751Z,63.4
2017-11-01T10:52:02.995Z,63.8
2017-11-01T10:57:03.441Z,63.8
2017-11-01T11:02:42.169Z,64.0
2017-11-01T11:07:03.342Z,63.8
2017-11-01T11:12:03.694Z,62.8
2017-11-01T11:17:21.542Z,63.0
2017-11-01T11:22:03.191Z,63.4
2017-11-01T11:27:03.745Z,63.3
2017-11-01T11:32:23.948Z,63.6
2017-11-01T11:37:03.549Z,64.0
2017-11-01T11:42:05.424Z,64.3
2017-11-01T11:47:15.902Z,64.4
2017-11-01T11:52:03.566Z,64.4
2017-11-01T11:57:03.305Z,64.9
2017-11-01T12:02:20.011Z,65.4
2017-11-01T12:07:03.123Z,65.4
2017-11-01T12:12:03.506Z,65.8
2017-11-01T12:17:10.087Z,66.4
2017-11-01T12:22:22.771Z,67.2
2017-11-01T12:27:20.610Z,67.0
2017-11-01T12:32:23.003Z,67.6
2017-11-01T12:37:29.269Z,68.3
2017-11-01T12:42:33.262Z,68.3
2017-11-01T12:47:33.497Z,68.5
2017-11-01T12:52:03.031Z,68.5
2017-11-01T12:57:03.577Z,69.2
2017-11-01T13:02:13.947Z,69.5
2017-11-01T13:07:03.308Z,69.3
2017-11-01T13:12:03.519Z,70.0
2017-11-01T13:17:30.002Z,69.9
2017-11-01T13:22:03.242Z,70.2
2017-11-01T13:27:04.018Z,70.2
2017-11-01T13:32:40.142Z,70.2
2017-11-01T13:37:03.695Z,70.1
2017-11-01T13:42:03.333Z,69.5
2017-11-01T13:47:27.886Z,67.2
2017-11-01T13:52:03.148Z,67.2
2017-11-01T13:57:03.584Z,66.2
2017-11-01T14:02:22.933Z,64.8
2017-11-01T14:07:03.753Z,63.6
2017-11-01T14:12:03.746Z,63.4
2017-11-01T14:17:24.262Z,61.9
2017-11-01T14:22:03.491Z,59.4
2017-11-01T14:27:04.007Z,59.4
2017-11-01T14:32:27.710Z,58.8
2017-11-01T14:37:03.043Z,58.6
2017-11-01T14:42:03.607Z,58.0
2017-11-01T14:47:28.176Z,57.3
2017-11-01T14:52:03.218Z,57.3
2017-11-01T14:57:03.825Z,57.0
2017-11-01T15:02:22.588Z,56.5
2017-11-01T15:07:03.748Z,58.4
2017-11-01T15:12:03.576Z,58.4
2017-11-01T15:17:23.969Z,58.2
2017-11-01T15:22:03.932Z,59.6
2017-11-01T15:27:03.611Z,62.2
2017-11-01T15:32:22.180Z,65.4
2017-11-01T15:37:03.805Z,65.3
2017-11-01T15:42:03.503Z,67.1
2017-11-01T15:47:24.532Z,69.1
2017-11-01T15:52:03.321Z,70.0
2017-11-01T15:57:03.891Z,70.0
2017-11-01T16:02:33.227Z,70.7
2017-11-01T16:07:03.872Z,71.9
2017-11-01T16:12:03.481Z,71.9
2017-11-01T16:17:23.456Z,72.1
2017-11-01T16:22:03.818Z,71.7
2017-11-01T16:27:03.382Z,71.7
2017-11-01T16:32:22.475Z,71.6
2017-11-01T16:37:03.121Z,71.6
2017-11-01T16:42:03.568Z,70.3
2017-11-01T16:47:04.789Z,70.4
2017-11-01T16:52:03.696Z,70.2
2017-11-01T16:57:03.265Z,69.5
2017-11-01T17:02:03.850Z,69.3
2017-11-01T17:07:03.332Z,69.2
2017-11-01T17:12:03.963Z,69.2
2017-11-01T17:17:03.416Z,68.8
2017-11-01T17:22:03.114Z,68.8
2017-11-01T17:27:03.506Z,68.3
2017-11-01T17:32:03.988Z,68.3
2017-11-01T17:37:03.471Z,68.4
2017-11-01T17:42:03.862Z,68.3
2017-11-01T17:47:03.365Z,68.3
2017-11-01T17:52:03.009Z,68.2
2017-11-01T17:57:03.433Z,68.1
2017-11-01T18:02:03.088Z,67.7
2017-11-01T18:07:03.630Z,67.8
2017-11-01T18:12:03.360Z,67.5
2017-11-01T18:17:03.891Z,67.3
2017-11-01T18:22:03.262Z,67.0
2017-11-01T18:27:03.730Z,67.0
2017-11-01T18:32:03.267Z,66.7
2017-11-01T18:37:03.756Z,66.6
2017-11-01T18:42:03.335Z,66.9
2017-11-01T18:47:03.862Z,66.8
2017-11-01T18:52:03.263Z,66.5
2017-11-01T18:57:03.794Z,66.5
2017-11-01T19:02:03.229Z,66.5
2017-11-01T19:07:03.811Z,66.3
2017-11-01T19:12:03.422Z,66.4
2017-11-01T19:17:04.007Z,66.3
2017-11-01T19:22:03.412Z,66.1
2017-11-01T19:27:03.988Z,65.7
2017-11-01T19:32:03.454Z,65.5
2017-11-01T19:37:03.942Z,65.5
2017-11-01T19:42:03.323Z,65.4
2017-11-01T19:47:03.891Z,65.4
2017-11-01T19:52:03.308Z,65.4
2017-11-01T19:57:03.801Z,65.4
2017-11-01T20:02:03.309Z,65.3
2017-11-01T20:07:03.952Z,65.3
2017-11-01T20:12:03.463Z,65.4
2017-11-01T20:17:04.060Z,65.5
2017-11-01T20:22:03.539Z,65.4
2017-11-01T20:27:03.126Z,65.3
2017-11-01T20:32:03.627Z,65.4
2017-11-01T20:37:03.138Z,65.4
2017-11-01T20:42:03.618Z,65.5
2017-11-01T20:47:03.206Z,65.1
2017-11-01T20:52:03.636Z,65.0
2017-11-01T20:57:03.093Z,64.9
2017-11-01T21:02:03.646Z,64.9
2017-11-01T21:07:03.279Z,64.8
2017-11-01T21:12:03.865Z,64.8
2017-11-01T21:17:03.338Z,64.6
2017-11-01T21:22:03.894Z,64.6
2017-11-01T21:27:03.282Z,64.5
2017-11-01T21:32:03.845Z,64.5
2017-11-01T21:37:03.256Z,64.5
2017-11-01T21:42:03.766Z,64.3
2017-11-01T21:47:03.234Z,64.3
2017-11-01T21:52:03.724Z,64.3
2017-11-01T21:57:03.191Z,64.3
2017-11-01T22:02:03.663Z,64.2
2017-11-01T22:07:03.214Z,64.2
2017-11-01T22:12:03.860Z,64.2
2017-11-01T22:17:03.393Z,64.0
2017-11-01T22:22:03.887Z,63.7
2017-11-01T22:27:03.282Z,63.8
2017-11-01T22:32:03.779Z,63.7
2017-11-01T22:37:03.263Z,63.8
2017-11-01T22:42:03.734Z,63.7
2017-11-01T22:47:03.381Z,63.8
2017-11-01T22:52:03.749Z,63.8
2017-11-01T22:57:03.219Z,63.8
2017-11-01T23:02:03.829Z,63.9
2017-11-01T23:07:03.145Z,63.8
2017-11-01T23:12:03.239Z,63.8
2017-11-01T23:22:04.111Z,64.2
2017-11-01T23:27:03.559Z,63.5
2017-11-01T23:32:03.619Z,63.6
2017-11-01T23:37:03.720Z,63.7
2017-11-01T23:42:03.736Z,63.7
2017-11-01T23:47:03.559Z,63.6
2017-11-01T23:52:03.002Z,63.5
2017-11-01T23:57:03.778Z,63.7
